createdAt,value
2022-10-23T00:01:01.076Z,3.90
2022-10-23T00:03:28.451Z,3.92
2022-10-23T00:05:55.904Z,4.45
2022-10-23T00:08:23.243Z,4.18
2022-10-23T00:10:50.649Z,3.60
2022-10-23T00:13:18.061Z,4.00
2022-10-23T00:15:45.486Z,3.80
2022-10-23T00:18:13.094Z,4.38
2022-10-23T00:20:40.500Z,3.70
2022-10-23T00:23:10.662Z,3.50
2022-10-23T00:25:38.949Z,4.60
2022-10-23T00:28:06.416Z,3.70
2022-10-23T00:30:33.878Z,3.53
2022-10-23T00:33:01.340Z,3.47
2022-10-23T00:35:28.790Z,3.97
2022-10-23T00:37:56.179Z,3.78
2022-10-23T00:40:23.615Z,3.67
2022-10-23T00:42:51.033Z,3.95
2022-10-23T00:45:26.568Z,3.60
2022-10-23T00:47:54.197Z,3.85
2022-10-23T00:50:22.101Z,3.50
2022-10-23T00:52:50.810Z,4.00
2022-10-23T00:55:18.805Z,4.22
2022-10-23T00:57:47.071Z,4.15
2022-10-23T01:00:29.378Z,3.75
2022-10-23T01:02:56.772Z,3.90
2022-10-23T01:05:27.360Z,3.67
2022-10-23T01:08:08.477Z,3.72
2022-10-23T01:10:47.491Z,4.20
2022-10-23T01:13:23.856Z,3.80
2022-10-23T01:16:15.963Z,3.78
2022-10-23T01:18:58.601Z,3.45
2022-10-23T01:21:34.360Z,4.13
2022-10-23T01:24:27.336Z,3.90
2022-10-23T01:26:54.916Z,3.97
2022-10-23T01:29:36.497Z,3.97
2022-10-23T01:32:12.673Z,4.10
2022-10-23T01:34:57.572Z,3.33
2022-10-23T01:37:29.739Z,3.75
2022-10-23T01:40:02.615Z,3.70
2022-10-23T01:42:34.832Z,3.70
2022-10-23T01:45:11.060Z,3.58
2022-10-23T01:47:43.986Z,3.28
2022-10-23T01:50:13.629Z,3.42
2022-10-23T01:52:43.690Z,3.45
2022-10-23T01:55:11.705Z,3.75
2022-10-23T01:57:39.932Z,3.50
2022-10-23T02:00:09.996Z,3.33
2022-10-23T02:02:51.540Z,3.65
2022-10-23T02:05:22.660Z,3.53
2022-10-23T02:07:50.261Z,3.28
2022-10-23T02:10:17.865Z,3.75
2022-10-23T02:13:10.112Z,3.50
2022-10-23T02:16:12.764Z,3.70
2022-10-23T02:18:57.171Z,3.67
2022-10-23T02:21:35.315Z,3.42
2022-10-23T02:24:04.807Z,2.80
2022-10-23T02:26:59.730Z,3.40
2022-10-23T02:32:19.912Z,3.40
2022-10-23T02:34:48.749Z,3.40
2022-10-23T02:37:16.440Z,3.67
2022-10-23T02:39:43.974Z,3.47
2022-10-23T02:42:14.832Z,3.17
2022-10-23T02:45:05.175Z,3.40
2022-10-23T02:47:38.709Z,3.22
2022-10-23T02:50:21.625Z,3.42
2022-10-23T02:53:26.520Z,3.00
2022-10-23T02:56:21.592Z,3.28
2022-10-23T03:01:34.061Z,3.20
2022-10-23T03:04:03.296Z,3.08
2022-10-23T03:06:32.328Z,2.80
2022-10-23T03:09:02.348Z,2.83
2022-10-23T03:11:30.027Z,3.33
2022-10-23T03:13:57.470Z,3.15
2022-10-23T03:16:24.952Z,3.08
2022-10-23T03:18:55.006Z,3.20
2022-10-23T03:21:22.483Z,3.03
2022-10-23T03:23:53.137Z,2.97
2022-10-23T03:26:28.775Z,3.05
2022-10-23T03:28:57.068Z,3.03
2022-10-23T03:31:24.781Z,3.15
2022-10-23T03:33:56.890Z,3.35
2022-10-23T03:36:24.303Z,2.92
2022-10-23T03:38:51.719Z,2.65
2022-10-23T03:41:19.118Z,2.80
2022-10-23T03:43:46.551Z,2.88
2022-10-23T03:46:13.970Z,3.17
2022-10-23T03:48:42.104Z,2.58
2022-10-23T03:51:09.620Z,2.78
2022-10-23T03:53:40.516Z,2.75
2022-10-23T03:56:07.899Z,2.97
2022-10-23T03:58:35.309Z,3.10
2022-10-23T04:01:02.757Z,3.20
2022-10-23T04:03:30.186Z,2.95
2022-10-23T04:05:57.609Z,2.85
2022-10-23T04:08:25.148Z,3.00
2022-10-23T04:10:55.024Z,2.90
2022-10-23T04:13:32.356Z,2.67
2022-10-23T04:15:59.793Z,2.85
2022-10-23T04:18:27.213Z,2.90
2022-10-23T04:20:54.662Z,2.78
2022-10-23T04:23:22.212Z,2.90
2022-10-23T04:25:49.696Z,3.10
2022-10-23T04:28:17.167Z,2.95
2022-10-23T04:30:46.119Z,3.00
2022-10-23T04:33:13.576Z,2.78
2022-10-23T04:35:41.135Z,2.92
2022-10-23T04:38:08.644Z,2.97
2022-10-23T04:40:36.076Z,3.00
2022-10-23T04:43:04.097Z,2.55
2022-10-23T04:45:36.185Z,3.10
2022-10-23T04:48:03.748Z,2.83
2022-10-23T04:53:43.912Z,2.75
2022-10-23T04:56:31.107Z,3.10
2022-10-23T05:01:40.036Z,2.67
2022-10-23T05:04:09.617Z,2.55
2022-10-23T05:07:09.367Z,2.80
2022-10-23T05:09:44.671Z,2.80
2022-10-23T05:12:41.704Z,2.67
2022-10-23T05:15:09.464Z,3.15
2022-10-23T05:17:37.629Z,3.35
2022-10-23T05:20:07.671Z,2.45
2022-10-23T05:22:36.656Z,2.50
2022-10-23T05:25:07.155Z,3.13
2022-10-23T05:27:35.050Z,2.60
2022-10-23T05:30:06.479Z,2.45
2022-10-23T05:32:37.147Z,2.42
2022-10-23T05:35:08.231Z,3.00
2022-10-23T05:37:38.291Z,2.50
2022-10-23T05:40:13.172Z,2.70
2022-10-23T05:42:42.186Z,2.53
2022-10-23T05:45:11.567Z,3.05
2022-10-23T05:48:10.673Z,2.88
2022-10-23T05:51:09.261Z,2.70
2022-10-23T05:53:56.900Z,3.20
2022-10-23T05:56:36.048Z,2.80
2022-10-23T05:59:21.955Z,2.60
2022-10-23T06:02:00.429Z,3.10
2022-10-23T06:04:48.649Z,3.05
2022-10-23T06:07:32.320Z,2.63
2022-10-23T06:10:05.565Z,2.88
2022-10-23T06:12:35.043Z,2.90
2022-10-23T06:15:02.544Z,2.60
2022-10-23T06:17:49.277Z,2.70
2022-10-23T06:20:16.789Z,2.70
2022-10-23T06:22:49.915Z,2.60
2022-10-23T06:25:37.249Z,2.47
2022-10-23T06:28:05.469Z,2.45
2022-10-23T06:30:34.463Z,2.67
2022-10-23T06:33:04.518Z,2.67
2022-10-23T06:35:34.408Z,2.72
2022-10-23T06:38:02.028Z,2.67
2022-10-23T06:40:38.487Z,2.70
2022-10-23T06:43:08.613Z,2.42
2022-10-23T06:46:13.114Z,2.70
2022-10-23T06:49:16.234Z,2.80
2022-10-23T06:51:48.761Z,2.83
2022-10-23T06:54:21.008Z,2.90
2022-10-23T06:56:51.926Z,2.47
2022-10-23T06:59:23.490Z,2.83
2022-10-23T07:04:25.648Z,2.72
2022-10-23T07:06:57.335Z,2.55
2022-10-23T07:09:30.190Z,2.30
2022-10-23T07:11:59.190Z,2.65
2022-10-23T07:14:39.950Z,2.42
2022-10-23T07:17:07.902Z,2.60
2022-10-23T07:19:35.299Z,2.58
2022-10-23T07:22:12.003Z,2.67
2022-10-23T07:25:06.005Z,2.65
2022-10-23T07:27:38.543Z,2.38
2022-10-23T07:30:08.824Z,2.20
2022-10-23T07:32:45.638Z,2.72
2022-10-23T07:37:56.972Z,2.37
2022-10-23T07:40:24.895Z,2.58
2022-10-23T07:42:55.249Z,2.60
2022-10-23T07:45:22.997Z,2.03
2022-10-23T07:47:53.011Z,2.55
2022-10-23T07:50:23.658Z,2.60
2022-10-23T07:52:51.177Z,2.40
2022-10-23T07:55:18.658Z,2.38
2022-10-23T07:58:03.029Z,2.45
2022-10-23T08:00:40.836Z,2.30
2022-10-23T08:03:15.747Z,2.20
2022-10-23T08:05:43.276Z,2.22
2022-10-23T08:08:10.691Z,2.38
2022-10-23T08:10:42.488Z,2.35
2022-10-23T08:13:14.292Z,2.55
2022-10-23T08:16:00.090Z,2.47
2022-10-23T08:19:02.613Z,2.60
2022-10-23T08:21:30.305Z,2.63
2022-10-23T08:23:58.448Z,2.50
2022-10-23T08:26:26.611Z,2.08
2022-10-23T08:28:53.998Z,2.20
2022-10-23T08:31:25.603Z,2.28
2022-10-23T08:34:11.626Z,2.10
2022-10-23T08:36:39.360Z,2.30
2022-10-23T08:39:07.308Z,2.25
2022-10-23T08:41:36.816Z,2.60
2022-10-23T08:44:30.857Z,2.40
2022-10-23T08:47:08.142Z,2.33
2022-10-23T08:49:56.658Z,2.50
2022-10-23T08:52:52.191Z,2.10
2022-10-23T08:55:40.864Z,2.42
2022-10-23T08:58:39.157Z,2.30
2022-10-23T09:01:30.300Z,2.30
2022-10-23T09:03:57.799Z,2.53
2022-10-23T09:06:39.739Z,2.40
2022-10-23T09:09:35.016Z,2.45
2022-10-23T09:12:12.011Z,2.47
2022-10-23T09:15:13.131Z,2.20
2022-10-23T09:17:44.353Z,2.30
2022-10-23T09:20:25.658Z,2.47
2022-10-23T09:22:55.051Z,2.17
2022-10-23T09:25:27.732Z,2.22
2022-10-23T09:28:01.535Z,1.92
2022-10-23T09:30:36.760Z,2.13
2022-10-23T09:33:24.098Z,2.20
2022-10-23T09:35:58.513Z,2.17
2022-10-23T09:41:16.798Z,2.08
2022-10-23T09:43:44.223Z,2.20
2022-10-23T09:46:12.268Z,2.30
2022-10-23T09:48:42.229Z,2.15
2022-10-23T09:51:19.487Z,2.13
2022-10-23T09:53:57.253Z,2.40
2022-10-23T09:56:30.315Z,2.00
2022-10-23T09:59:13.041Z,1.85
2022-10-23T10:01:54.905Z,2.33
2022-10-23T10:04:57.419Z,1.95
2022-10-23T10:07:26.680Z,2.20
2022-10-23T10:09:54.710Z,2.13
2022-10-23T10:12:37.580Z,2.33
2022-10-23T10:15:16.319Z,2.33
2022-10-23T10:17:55.675Z,2.40
2022-10-23T10:20:37.800Z,1.80
2022-10-23T10:23:18.414Z,2.22
2022-10-23T10:25:59.249Z,2.20
2022-10-23T10:28:35.761Z,2.28
2022-10-23T10:31:09.811Z,2.33
2022-10-23T10:33:49.339Z,2.13
2022-10-23T10:36:40.794Z,2.22
2022-10-23T10:39:50.117Z,2.53
2022-10-23T10:42:22.679Z,2.30
2022-10-23T10:45:27.808Z,2.50
2022-10-23T10:48:16.597Z,2.15
2022-10-23T10:51:28.913Z,2.30
2022-10-23T10:54:00.930Z,2.30
2022-10-23T10:56:29.575Z,2.50
2022-10-23T10:58:59.576Z,2.25
2022-10-23T11:01:47.398Z,2.50
2022-10-23T11:04:21.700Z,2.50
2022-10-23T11:06:51.199Z,2.58
2022-10-23T11:09:22.565Z,2.85
2022-10-23T11:11:50.103Z,2.20
2022-10-23T11:14:18.911Z,2.70
2022-10-23T11:16:49.643Z,2.55
2022-10-23T11:19:21.545Z,2.75
2022-10-23T11:21:54.930Z,2.75
2022-10-23T11:24:36.038Z,2.53
2022-10-23T11:27:27.855Z,2.65
2022-10-23T11:30:17.659Z,2.90
2022-10-23T11:32:58.157Z,2.58
2022-10-23T11:35:57.225Z,2.67
2022-10-23T11:38:30.137Z,2.50
2022-10-23T11:41:03.772Z,2.97
2022-10-23T11:43:46.844Z,2.47
2022-10-23T11:46:38.161Z,3.08
2022-10-23T11:49:20.421Z,2.80
2022-10-23T11:51:47.780Z,2.97
2022-10-23T11:54:15.243Z,2.80
2022-10-23T11:57:10.405Z,2.88
2022-10-23T11:59:41.254Z,2.83
2022-10-23T12:02:33.343Z,2.88
2022-10-23T12:05:04.284Z,2.97
2022-10-23T12:07:37.079Z,2.88
2022-10-23T12:10:21.311Z,2.90
2022-10-23T12:12:56.584Z,3.05
2022-10-23T12:15:24.734Z,2.97
2022-10-23T12:17:54.226Z,2.88
2022-10-23T12:21:03.293Z,2.80
2022-10-23T12:23:49.757Z,3.50
2022-10-23T12:26:28.541Z,3.15
2022-10-23T12:29:08.758Z,3.05
2022-10-23T12:32:08.872Z,3.55
2022-10-23T12:34:48.665Z,3.20
2022-10-23T12:37:45.549Z,3.17
2022-10-23T12:40:12.962Z,3.42
2022-10-23T12:42:40.844Z,3.47
2022-10-23T12:45:23.855Z,3.20
2022-10-23T12:47:51.418Z,3.42
2022-10-23T12:50:21.473Z,3.13
2022-10-23T12:52:55.352Z,3.65
2022-10-23T12:55:23.834Z,3.20
2022-10-23T12:57:51.236Z,3.35
2022-10-23T13:00:22.770Z,3.10
2022-10-23T13:03:04.013Z,3.75
2022-10-23T13:05:32.161Z,3.58
2022-10-23T13:07:59.658Z,3.47
2022-10-23T13:10:40.182Z,3.20
2022-10-23T13:13:11.385Z,3.42
2022-10-23T13:15:40.606Z,3.08
2022-10-23T13:18:08.918Z,3.40
2022-10-23T13:20:40.722Z,3.30
2022-10-23T13:23:09.727Z,3.42
2022-10-23T13:25:38.446Z,3.25
2022-10-23T13:28:13.523Z,3.20
2022-10-23T13:30:43.060Z,3.28
2022-10-23T13:33:23.777Z,3.17
2022-10-23T13:36:01.949Z,3.33
2022-10-23T13:38:36.267Z,3.50
2022-10-23T13:43:32.413Z,3.13
2022-10-23T13:46:00.380Z,2.92
2022-10-23T13:48:28.034Z,3.10
2022-10-23T13:50:58.517Z,2.83
2022-10-23T13:53:25.981Z,3.60
2022-10-23T13:55:56.296Z,3.20
2022-10-23T13:58:26.076Z,2.95
2022-10-23T14:00:53.739Z,3.10
2022-10-23T14:03:24.312Z,3.22
2022-10-23T14:05:51.943Z,3.10
2022-10-23T14:08:19.386Z,3.00
2022-10-23T14:10:46.819Z,3.10
2022-10-23T14:13:14.198Z,3.20
2022-10-23T14:15:41.599Z,2.88
2022-10-23T14:18:09.012Z,3.03
2022-10-23T14:20:38.404Z,3.17
2022-10-23T14:23:05.801Z,3.17
2022-10-23T14:25:33.229Z,3.00
2022-10-23T14:28:00.641Z,2.97
2022-10-23T14:30:28.014Z,2.60
2022-10-23T14:32:55.395Z,3.20
2022-10-23T14:35:22.827Z,3.03
2022-10-23T14:37:50.252Z,3.22
2022-10-23T14:40:17.674Z,3.10
2022-10-23T14:42:45.349Z,3.00
2022-10-23T14:45:12.906Z,2.88
2022-10-23T14:47:40.327Z,3.30
2022-10-23T14:50:08.205Z,2.83
2022-10-23T14:52:35.599Z,2.58
2022-10-23T14:55:03.066Z,2.90
2022-10-23T14:57:30.742Z,2.78
2022-10-23T14:59:58.143Z,3.03
2022-10-23T15:02:25.593Z,3.00
2022-10-23T15:04:53.008Z,2.95
2022-10-23T15:07:20.436Z,2.92
2022-10-23T15:09:47.830Z,2.90
2022-10-23T15:12:15.236Z,3.00
2022-10-23T15:14:42.613Z,2.80
2022-10-23T15:17:15.474Z,3.67
2022-10-23T15:19:43.309Z,2.65
2022-10-23T15:22:10.672Z,2.72
2022-10-23T15:24:38.040Z,2.90
2022-10-23T15:27:05.500Z,2.83
2022-10-23T15:29:33.009Z,3.15
2022-10-23T15:32:00.379Z,2.65
2022-10-23T15:34:28.731Z,2.92
2022-10-23T15:36:56.688Z,2.78
2022-10-23T15:39:33.903Z,3.15
2022-10-23T15:42:02.660Z,2.90
2022-10-23T15:44:30.829Z,3.03
2022-10-23T15:46:58.424Z,2.97
2022-10-23T15:49:26.747Z,2.75
2022-10-23T15:51:54.286Z,2.80
2022-10-23T15:54:21.769Z,3.00
2022-10-23T15:56:50.809Z,3.00
2022-10-23T15:59:18.881Z,2.95
2022-10-23T16:01:46.488Z,3.00
2022-10-23T16:04:15.852Z,2.83
2022-10-23T16:06:44.730Z,2.97
2022-10-23T16:09:12.313Z,2.78
2022-10-23T16:11:40.029Z,3.00
2022-10-23T16:14:07.576Z,3.10
2022-10-23T16:16:37.657Z,3.08
2022-10-23T16:19:05.138Z,3.50
2022-10-23T16:21:34.265Z,3.17
2022-10-23T16:24:02.441Z,3.45
2022-10-23T16:26:30.661Z,3.53
2022-10-23T16:28:59.828Z,3.88
2022-10-23T16:31:27.454Z,3.60
2022-10-23T16:36:29.227Z,3.50
2022-10-23T16:39:20.050Z,3.80
2022-10-23T16:42:06.139Z,3.67
2022-10-23T16:44:52.012Z,4.35
2022-10-23T16:47:19.691Z,4.35
2022-10-23T16:49:47.134Z,5.25
2022-10-23T16:52:14.540Z,5.05
2022-10-23T16:54:43.417Z,5.03
2022-10-23T16:57:10.835Z,4.97
2022-10-23T16:59:38.348Z,4.53
2022-10-23T17:02:05.880Z,4.22
2022-10-23T17:04:33.372Z,4.30
2022-10-23T17:07:00.786Z,4.63
2022-10-23T17:09:31.277Z,4.53
2022-10-23T17:12:17.753Z,5.10
2022-10-23T17:14:45.162Z,6.85
2022-10-23T17:17:13.625Z,5.15
2022-10-23T17:19:46.015Z,5.15
2022-10-23T17:22:14.216Z,6.40
2022-10-23T17:24:42.055Z,5.68
2022-10-23T17:27:09.578Z,5.03
2022-10-23T17:29:36.978Z,5.00
2022-10-23T17:32:04.651Z,6.10
2022-10-23T17:34:33.468Z,6.03
2022-10-23T17:37:02.374Z,5.97
2022-10-23T17:39:29.978Z,6.47
2022-10-23T17:41:57.533Z,6.10
2022-10-23T17:44:24.927Z,6.20
2022-10-23T17:46:53.589Z,6.05
2022-10-23T17:49:21.686Z,5.95
2022-10-23T17:51:54.391Z,5.88
2022-10-23T17:54:21.940Z,6.50
2022-10-23T17:56:52.008Z,5.90
2022-10-23T17:59:19.749Z,5.65
2022-10-23T18:01:48.284Z,6.63
2022-10-23T18:04:17.228Z,6.40
2022-10-23T18:06:49.532Z,5.90
2022-10-23T18:09:17.166Z,6.47
2022-10-23T18:11:48.446Z,5.97
2022-10-23T18:14:17.460Z,6.57
2022-10-23T18:16:46.005Z,6.13
2022-10-23T18:19:14.538Z,5.93
2022-10-23T18:21:41.968Z,5.88
2022-10-23T18:24:09.422Z,5.55
2022-10-23T18:26:39.208Z,6.50
2022-10-23T18:29:08.817Z,5.78
2022-10-23T18:31:37.391Z,6.10
2022-10-23T18:34:07.583Z,6.43
2022-10-23T18:36:37.231Z,6.10
2022-10-23T18:39:05.444Z,5.97
2022-10-23T18:41:34.956Z,6.38
2022-10-23T18:44:02.416Z,6.20
2022-10-23T18:46:29.863Z,5.55
2022-10-23T18:48:57.360Z,6.32
2022-10-23T18:51:30.230Z,5.82
2022-10-23T18:53:57.713Z,6.28
2022-10-23T18:56:26.792Z,6.50
2022-10-23T18:58:55.723Z,6.00
2022-10-23T19:01:23.408Z,6.88
2022-10-23T19:03:51.356Z,6.00
2022-10-23T19:06:19.082Z,6.15
2022-10-23T19:08:46.637Z,7.00
2022-10-23T19:11:14.881Z,6.38
2022-10-23T19:13:43.276Z,6.57
2022-10-23T19:16:12.522Z,5.75
2022-10-23T19:18:40.897Z,6.25
2022-10-23T19:21:08.306Z,6.38
2022-10-23T19:23:36.475Z,6.20
2022-10-23T19:26:11.096Z,5.60
2022-10-23T19:28:40.813Z,6.85
2022-10-23T19:31:10.254Z,6.30
2022-10-23T19:33:40.823Z,5.88
2022-10-23T19:36:12.577Z,6.40
2022-10-23T19:38:42.599Z,6.00
2022-10-23T19:41:10.168Z,6.63
2022-10-23T19:43:43.429Z,6.75
2022-10-23T19:46:12.387Z,6.35
2022-10-23T19:48:44.402Z,6.32
2022-10-23T19:51:13.323Z,6.60
2022-10-23T19:53:42.268Z,6.32
2022-10-23T19:56:11.572Z,6.18
2022-10-23T19:58:39.562Z,6.30
2022-10-23T20:01:13.205Z,6.85
2022-10-23T20:03:41.889Z,6.03
2022-10-23T20:06:10.776Z,6.38
2022-10-23T20:08:38.683Z,6.43
2022-10-23T20:11:06.536Z,6.55
2022-10-23T20:13:34.190Z,6.43
2022-10-23T20:16:01.755Z,6.78
2022-10-23T20:18:29.475Z,5.97
2022-10-23T20:20:56.868Z,6.50
2022-10-23T20:23:24.245Z,6.15
2022-10-23T20:25:51.665Z,6.35
2022-10-23T20:28:19.111Z,6.20
2022-10-23T20:30:46.593Z,5.88
2022-10-23T20:33:14.038Z,6.30
2022-10-23T20:35:41.686Z,6.65
2022-10-23T20:38:09.323Z,6.60
2022-10-23T20:40:36.724Z,6.15
2022-10-23T20:43:04.123Z,7.20
2022-10-23T20:45:31.583Z,6.10
2022-10-23T20:47:58.934Z,6.50
2022-10-23T20:50:26.294Z,6.25
2022-10-23T20:52:53.786Z,6.72
2022-10-23T20:55:21.241Z,6.05
2022-10-23T20:57:48.607Z,5.68
2022-10-23T21:00:16.199Z,5.78
2022-10-23T21:02:47.002Z,6.47
2022-10-23T21:05:16.027Z,6.25
2022-10-23T21:07:43.396Z,6.00
2022-10-23T21:10:10.781Z,6.20
2022-10-23T21:12:38.121Z,5.60
2022-10-23T21:15:06.061Z,5.55
2022-10-23T21:17:36.078Z,5.78
2022-10-23T21:20:03.863Z,6.15
2022-10-23T21:22:31.321Z,5.97
2022-10-23T21:25:00.122Z,6.13
2022-10-23T21:27:27.550Z,6.50
2022-10-23T21:29:54.935Z,6.20
2022-10-23T21:32:22.276Z,6.28
2022-10-23T21:34:49.657Z,6.05
2022-10-23T21:37:17.080Z,6.68
2022-10-23T21:39:44.627Z,5.93
2022-10-23T21:42:12.796Z,5.40
2022-10-23T21:44:40.331Z,5.93
2022-10-23T21:47:07.742Z,5.97
2022-10-23T21:49:35.195Z,6.28
2022-10-23T21:52:02.609Z,6.07
2022-10-23T21:54:30.002Z,5.95
2022-10-23T21:56:57.378Z,6.65
2022-10-23T21:59:30.015Z,5.90
2022-10-23T22:01:59.249Z,5.93
2022-10-23T22:04:26.878Z,6.15
2022-10-23T22:06:54.376Z,5.35
2022-10-23T22:09:22.244Z,5.97
2022-10-23T22:11:50.382Z,5.75
2022-10-23T22:14:17.830Z,6.22
2022-10-23T22:16:45.254Z,6.32
2022-10-23T22:19:13.625Z,6.32
2022-10-23T22:21:41.055Z,6.95
2022-10-23T22:24:08.548Z,6.35
2022-10-23T22:26:43.136Z,6.43
2022-10-23T22:29:12.130Z,6.15
2022-10-23T22:31:39.570Z,6.25
2022-10-23T22:34:20.148Z,6.20
2022-10-23T22:36:56.923Z,6.18
2022-10-23T22:39:24.435Z,6.25
2022-10-23T22:41:52.188Z,6.60
2022-10-23T22:44:19.693Z,6.18
2022-10-23T22:46:49.836Z,6.03
2022-10-23T22:49:17.342Z,6.22
2022-10-23T22:51:44.757Z,5.60
2022-10-23T22:54:12.161Z,6.15
2022-10-23T22:56:39.605Z,6.30
2022-10-23T22:59:07.005Z,5.78
2022-10-23T23:01:39.543Z,5.68
2022-10-23T23:04:19.454Z,5.30
2022-10-23T23:06:53.592Z,5.85
2022-10-23T23:09:21.018Z,5.80
2022-10-23T23:11:52.476Z,5.45
2022-10-23T23:14:24.449Z,6.35
2022-10-23T23:16:52.829Z,6.07
2022-10-23T23:19:20.378Z,5.45
2022-10-23T23:21:47.817Z,5.40
2022-10-23T23:24:15.231Z,5.50
2022-10-23T23:26:42.616Z,4.82
2022-10-23T23:29:10.068Z,5.63
2022-10-23T23:31:37.488Z,5.50
2022-10-23T23:34:04.928Z,5.20
2022-10-23T23:36:32.751Z,5.38
2022-10-23T23:39:00.223Z,5.40
2022-10-23T23:41:27.797Z,5.40
2022-10-23T23:43:55.892Z,5.68
2022-10-23T23:46:23.417Z,5.28
2022-10-23T23:48:50.879Z,5.07
2022-10-23T23:51:19.972Z,5.85
2022-10-23T23:53:48.028Z,5.18
2022-10-23T23:56:15.687Z,5.18
2022-10-23T23:58:45.762Z,5.00
